Time;durP1;ratioP1;P1;durP2;ratioP2;P2;SDS_P1;SDS_P2;PMS_P1;PMS_P2;Temp;Humidity;BMP_temperature;BMP_pressure;BME280_temperature;BME280_humidity;BME280_pressure;Samples;Min_cycle;Max_cycle;Signal;HPM_P1;HPM_P2
2022/09/27 00:01:11;;;;;;;33.80;30.60;;;;;;;6.46;100.00;96646.73;105571;1281;22577;-83
2022/09/27 00:03:40;;;;;;;34.60;31.60;;;;;;;6.44;100.00;96646.33;105586;1282;22800;-84
2022/09/27 00:06:24;;;;;;;32.40;29.50;;;;;;;6.52;100.00;96643.95;105607;1281;22564;-84
2022/09/27 00:08:52;;;;;;;33.80;30.60;;;;;;;6.63;100.00;96640.45;105697;1282;24264;-83
2022/09/27 00:11:29;;;;;;;35.30;32.00;;;;;;;6.66;100.00;96638.23;105680;1282;25253;-83
2022/09/27 00:13:58;;;;;;;30.80;28.00;;;;;;;6.64;100.00;96636.61;105512;1282;22543;-82
2022/09/27 00:16:29;;;;;;;34.80;31.50;;;;;;;6.64;100.00;96634.86;105948;1282;23042;-83
2022/09/27 00:18:59;;;;;;;34.50;31.00;;;;;;;6.69;100.00;96632.42;105953;1282;23084;-82
2022/09/27 00:21:29;;;;;;;39.60;35.90;;;;;;;6.71;100.00;96634.59;105377;1282;24257;-83
2022/09/27 00:23:58;;;;;;;35.30;32.10;;;;;;;6.68;100.00;96627.38;105422;1282;25486;-84
2022/09/27 00:26:26;;;;;;;38.30;34.90;;;;;;;6.62;100.00;96626.16;105697;1282;25435;-84
2022/09/27 00:28:55;;;;;;;36.50;33.10;;;;;;;6.63;100.00;96621.61;105426;1282;22710;-88
2022/09/27 00:31:28;;;;;;;35.30;32.20;;;;;;;6.64;100.00;96616.77;105807;1282;25657;-85
2022/09/27 00:33:59;;;;;;;34.30;30.50;;;;;;;6.65;100.00;96610.04;106937;1281;22559;-82
2022/09/27 00:36:29;;;;;;;31.40;28.60;;;;;;;6.64;100.00;96606.09;106243;1282;22892;-82
2022/09/27 00:38:58;;;;;;;33.40;30.20;;;;;;;6.63;100.00;96599.50;105636;1282;23972;-83
2022/09/27 00:41:28;;;;;;;32.00;29.30;;;;;;;6.59;100.00;96600.11;105568;1282;22580;-82
2022/09/27 00:44:23;;;;;;;34.30;30.80;;;;;;;6.52;100.00;96595.98;105720;1282;24503;-83
2022/09/27 00:47:12;;;;;;;34.10;30.90;;;;;;;6.48;100.00;96594.86;105495;1282;22870;-82
2022/09/27 00:49:50;;;;;;;36.40;33.20;;;;;;;6.44;100.00;96591.27;105688;1282;22763;-84
2022/09/27 00:52:20;;;;;;;35.50;32.20;;;;;;;6.38;100.00;96589.15;105662;1281;22550;-83
2022/09/27 00:54:54;;;;;;;34.60;31.00;;;;;;;6.33;100.00;96587.77;105572;1282;22652;-83
2022/09/27 00:57:22;;;;;;;36.70;33.10;;;;;;;6.36;100.00;96590.11;105338;1282;22704;-83
2022/09/27 01:00:04;;;;;;;35.00;31.80;;;;;;;6.38;100.00;96584.92;105524;1282;25323;-85
2022/09/27 01:02:35;;;;;;;33.30;30.40;;;;;;;6.38;100.00;96582.04;105559;1282;23983;-84
2022/09/27 01:05:05;;;;;;;32.60;29.60;;;;;;;6.39;100.00;96579.12;105508;1282;25202;-83
2022/09/27 01:07:33;;;;;;;31.50;28.60;;;;;;;6.36;100.00;96577.53;105578;1281;24230;-83
2022/09/27 01:10:04;;;;;;;30.80;27.90;;;;;;;6.42;100.00;96574.14;105429;1282;22611;-84
2022/09/27 01:12:56;;;;;;;48.50;44.10;;;;;;;6.44;100.00;96569.48;105381;1282;24296;-83
2022/09/27 01:16:14;;;;;;;31.10;28.20;;;;;;;6.39;100.00;96563.06;105467;1282;24293;-84
2022/09/27 01:19:00;;;;;;;29.70;27.10;;;;;;;6.23;100.00;96559.70;104636;1291;24233;-83
2022/09/27 01:21:28;;;;;;;30.30;27.30;;;;;;;6.22;100.00;96562.13;104689;1291;25505;-83
2022/09/27 01:24:12;;;;;;;35.30;32.20;;;;;;;6.28;100.00;96556.27;104679;1291;25331;-82
2022/09/27 01:26:50;;;;;;;102.00;92.00;;;;;;;6.30;100.00;96546.32;104670;1291;22537;-83
2022/09/27 01:29:52;;;;;;;31.80;29.00;;;;;;;6.29;100.00;96544.30;104621;1290;24236;-84
2022/09/27 01:32:39;;;;;;;25.70;23.50;;;;;;;6.25;100.00;96541.31;104185;1290;23525;-83
2022/09/27 01:35:20;;;;;;;24.90;22.50;;;;;;;6.28;100.00;96530.91;104607;1291;24284;-83
2022/09/27 01:38:02;;;;;;;24.00;21.90;;;;;;;6.25;100.00;96529.79;104414;1290;22659;-83
2022/09/27 01:40:45;;;;;;;35.70;32.40;;;;;;;6.25;100.00;96523.66;104678;1290;25636;-85
2022/09/27 01:43:48;;;;;;;25.00;22.60;;;;;;;6.25;100.00;96522.62;104517;1290;24805;-83
2022/09/27 01:46:38;;;;;;;24.90;22.70;;;;;;;6.18;100.00;96522.32;104853;1291;24230;-83
2022/09/27 01:49:32;;;;;;;23.30;21.00;;;;;;;6.15;100.00;96520.02;106088;1290;22683;-84
2022/09/27 01:52:04;;;;;;;24.20;22.00;;;;;;;6.11;100.00;96514.15;104944;1291;24831;-84
2022/09/27 01:54:39;;;;;;;22.50;20.50;;;;;;;6.05;100.00;96509.52;104992;1282;22544;-83
2022/09/27 01:57:24;;;;;;;21.50;19.60;;;;;;;5.99;100.00;96503.14;105380;1282;25355;-84
2022/09/27 02:00:06;;;;;;;22.80;20.60;;;;;;;5.93;100.00;96503.42;105477;1282;22699;-83
2022/09/27 02:03:03;;;;;;;21.70;19.60;;;;;;;5.88;100.00;96498.84;105664;1282;22910;-83
2022/09/27 02:05:51;;;;;;;21.30;19.30;;;;;;;5.90;100.00;96496.58;105340;1282;25200;-83
2022/09/27 02:08:40;;;;;;;20.70;18.70;;;;;;;5.99;100.00;96494.89;105528;1282;25369;-83
2022/09/27 02:11:17;;;;;;;22.40;20.20;;;;;;;6.04;100.00;96494.08;105616;1282;25369;-81
2022/09/27 02:14:08;;;;;;;23.30;21.20;;;;;;;6.08;100.00;96489.88;105393;1282;25290;-82
2022/09/27 02:16:50;;;;;;;20.80;19.00;;;;;;;6.08;100.00;96486.77;105319;1281;25359;-82
2022/09/27 02:19:29;;;;;;;23.00;20.70;;;;;;;6.01;100.00;96483.39;105366;1282;25359;-83
2022/09/27 02:22:21;;;;;;;65.00;59.10;;;;;;;5.93;100.00;96483.83;105635;1282;23954;-83
2022/09/27 02:25:12;;;;;;;24.20;22.00;;;;;;;5.92;100.00;96483.70;104481;1291;22900;-84
2022/09/27 02:27:49;;;;;;;25.70;23.30;;;;;;;5.95;100.00;96489.12;104523;1290;22863;-82
2022/09/27 02:30:19;;;;;;;24.10;21.90;;;;;;;5.95;100.00;96487.41;104752;1290;23966;-84
2022/09/27 02:32:51;;;;;;;26.90;24.30;;;;;;;5.90;100.00;96485.71;104697;1290;22555;-83
2022/09/27 02:35:28;;;;;;;26.10;23.80;;;;;;;5.83;100.00;96483.58;104653;1290;23505;-85
2022/09/27 02:37:57;;;;;;;24.50;22.20;;;;;;;5.80;100.00;96481.89;104615;1290;25408;-81
2022/09/27 02:40:31;;;;;;;28.50;26.00;;;;;;;5.79;100.00;96480.63;104975;1291;25965;-83
2022/09/27 02:43:04;;;;;;;22.10;20.10;;;;;;;5.75;100.00;96480.40;105611;1290;22555;-83
2022/09/27 02:46:10;;;;;;;25.60;23.30;;;;;;;5.62;100.00;96482.27;105280;1290;24298;-81
2022/09/27 02:49:01;;;;;;;27.50;25.00;;;;;;;5.56;100.00;96483.43;104968;1290;24109;-82
2022/09/27 02:51:30;;;;;;;26.50;23.90;;;;;;;5.48;100.00;96478.68;104780;1291;25936;-83
2022/09/27 02:54:21;;;;;;;26.30;24.00;;;;;;;5.49;100.00;96473.75;104906;1291;22559;-82
2022/09/27 02:57:22;;;;;;;27.50;23.50;;;;;;;5.52;100.00;96468.23;104649;1291;22671;-84
2022/09/27 03:00:46;;;;;;;26.00;23.70;;;;;;;5.54;100.00;96459.00;104834;1290;24436;-83
2022/09/27 03:03:54;;;;;;;28.50;26.00;;;;;;;5.53;100.00;96449.58;105707;1281;22722;-84
2022/09/27 03:06:23;;;;;;;23.00;20.80;;;;;;;5.54;100.00;96450.23;106364;1282;22598;-83
2022/09/27 03:08:51;;;;;;;24.50;22.00;;;;;;;5.53;100.00;96448.55;106893;1282;25384;-83
2022/09/27 03:11:19;;;;;;;24.90;22.60;;;;;;;5.52;100.00;96447.44;106610;1282;23882;-83
2022/09/27 03:13:47;;;;;;;25.30;22.90;;;;;;;5.55;100.00;96449.21;106299;1282;22850;-83
2022/09/27 03:16:35;;;;;;;26.40;24.10;;;;;;;5.61;100.00;96458.52;106490;1282;23837;-84
2022/09/27 03:19:24;;;;;;;27.00;24.40;;;;;;;5.57;100.00;96448.23;105992;1281;25927;-83
2022/09/27 03:22:10;;;;;;;31.70;28.90;;;;;;;5.52;100.00;96442.64;105845;1283;26513;-85
2022/09/27 03:24:39;;;;;;;27.40;24.80;;;;;;;5.54;100.00;96442.91;105735;1281;22569;-84
2022/09/27 03:27:08;;;;;;;26.10;23.90;;;;;;;5.65;100.00;96439.35;105814;1282;22700;-84
2022/09/27 03:29:36;;;;;;;23.80;21.60;;;;;;;5.80;100.00;96442.02;106112;1282;22633;-84
2022/09/27 03:32:06;;;;;;;25.40;23.10;;;;;;;5.93;100.00;96446.96;105956;1282;22488;-84
2022/09/27 03:35:00;;;;;;;24.10;22.00;;;;;;;6.07;100.00;96445.25;105364;1282;22702;-85
2022/09/27 03:37:28;;;;;;;26.40;24.00;;;;;;;6.11;100.00;96441.17;105578;1283;22540;-84
2022/09/27 03:39:56;;;;;;;28.50;26.00;;;;;;;6.12;100.00;96438.05;105702;1281;24097;-83
2022/09/27 03:42:24;;;;;;;29.60;26.60;;;;;;;6.14;100.00;96436.83;105620;1282;25363;-84
2022/09/27 03:44:52;;;;;;;24.50;22.30;;;;;;;6.21;100.00;96435.59;105509;1281;25225;-84
2022/09/27 03:47:21;;;;;;;21.80;19.90;;;;;;;6.33;100.00;96430.36;105661;1282;22708;-84
2022/09/27 03:49:49;;;;;;;21.20;19.30;;;;;;;6.48;100.00;96434.03;105651;1282;22566;-84
2022/09/27 03:52:18;;;;;;;20.40;18.70;;;;;;;6.60;100.00;96434.30;105655;1281;22739;-85
2022/09/27 03:54:46;;;;;;;20.60;18.70;;;;;;;6.73;100.00;96430.06;105487;1282;25407;-82
2022/09/27 03:57:15;;;;;;;22.60;20.60;;;;;;;6.84;100.00;96428.85;105464;1284;22702;-83
2022/09/27 03:59:43;;;;;;;18.90;16.90;;;;;;;6.95;100.00;96425.60;105638;1282;25585;-83
2022/09/27 04:02:34;;;;;;;18.30;15.80;;;;;;;7.06;100.00;96420.09;105701;1281;22590;-84
2022/09/27 04:05:27;;;;;;;18.40;16.70;;;;;;;7.09;100.00;96412.63;105624;1282;25251;-82
2022/09/27 04:08:01;;;;;;;18.20;16.70;;;;;;;7.07;100.00;96412.16;105620;1282;24220;-82
2022/09/27 04:10:31;;;;;;;16.50;15.00;;;;;;;7.07;100.00;96413.39;105740;1281;24192;-83
2022/09/27 04:12:59;;;;;;;17.10;15.50;;;;;;;7.06;100.00;96402.73;105427;1282;22573;-82
2022/09/27 04:15:30;;;;;;;21.40;19.10;;;;;;;7.09;100.00;96410.43;105746;1282;24264;-83
2022/09/27 04:18:18;;;;;;;48.30;43.90;;;;;;;7.07;100.00;96416.37;106668;1282;22565;-82
2022/09/27 04:21:12;;;;;;;182.40;135.70;;;;;;;7.03;100.00;96422.48;106087;1282;24342;-83
2022/09/27 04:23:46;;;;;;;184.20;135.80;;;;;;;7.00;100.00;96422.09;105450;1283;22580;-84
2022/09/27 04:26:15;;;;;;;245.70;94.50;;;;;;;6.97;100.00;96425.40;105537;1282;24255;-84
2022/09/27 04:28:52;;;;;;;194.60;85.20;;;;;;;6.94;100.00;96423.59;105475;1282;24915;-85
2022/09/27 04:31:22;;;;;;;80.00;56.00;;;;;;;6.94;100.00;96418.52;105401;1283;24302;-82
2022/09/27 04:33:55;;;;;;;60.20;48.10;;;;;;;6.91;100.00;96420.46;105527;1282;24297;-82
2022/09/27 04:36:28;;;;;;;56.00;44.80;;;;;;;6.90;100.00;96423.09;105467;1282;22629;-82
2022/09/27 04:39:08;;;;;;;77.00;67.00;;;;;;;6.91;100.00;96418.11;105501;1283;25476;-82
2022/09/27 04:41:39;;;;;;;35.10;31.30;;;;;;;6.90;100.00;96418.85;105458;1282;22649;-81
2022/09/27 04:44:07;;;;;;;19.40;17.60;;;;;;;6.86;100.00;96415.19;105349;1282;22559;-82
2022/09/27 04:46:35;;;;;;;18.10;16.50;;;;;;;6.87;100.00;96414.52;105391;1282;22681;-83
2022/09/27 04:49:04;;;;;;;16.90;15.40;;;;;;;6.88;100.00;96412.20;105400;1283;23312;-81
2022/09/27 04:51:34;;;;;;;13.20;11.80;;;;;;;6.93;100.00;96411.10;105438;1283;25385;-82
2022/09/27 04:54:03;;;;;;;12.10;11.00;;;;;;;6.98;100.00;96407.30;105443;1282;25276;-83
2022/09/27 04:56:34;;;;;;;12.20;10.70;;;;;;;7.05;100.00;96405.98;105446;1282;24302;-84
2022/09/27 04:59:03;;;;;;;12.80;10.80;;;;;;;7.13;100.00;96403.03;105487;1282;23076;-83
2022/09/27 05:01:37;;;;;;;24.60;21.90;;;;;;;7.20;100.00;96401.96;105236;1282;22642;-82
2022/09/27 05:04:12;;;;;;;27.70;25.20;;;;;;;7.26;100.00;96402.34;105501;1282;25361;-83
2022/09/27 05:06:43;;;;;;;26.40;24.00;;;;;;;7.34;100.00;96399.52;105505;1281;22707;-82
2022/09/27 05:09:23;;;;;;;18.60;16.90;;;;;;;7.42;100.00;96395.52;105195;1283;24097;-82
2022/09/27 05:11:53;;;;;;;13.30;12.10;;;;;;;7.49;100.00;96395.46;105479;1282;22604;-82
2022/09/27 05:14:34;;;;;;;14.70;13.20;;;;;;;7.57;100.00;96384.55;105515;1282;23026;-82
2022/09/27 05:17:13;;;;;;;13.40;12.10;;;;;;;7.64;100.00;96380.84;105356;1284;24144;-81
2022/09/27 05:19:59;;;;;;;18.20;16.60;;;;;;;7.72;100.00;96374.95;105599;1281;25450;-82
2022/09/27 05:22:32;;;;;;;13.50;12.30;;;;;;;7.79;100.00;96372.27;105358;1284;24308;-81
2022/09/27 05:25:00;;;;;;;12.80;11.70;;;;;;;7.84;100.00;96371.50;105370;1281;25002;-82
2022/09/27 05:27:29;;;;;;;14.30;13.00;;;;;;;7.92;100.00;96366.31;105483;1282;22899;-83
2022/09/27 05:30:00;;;;;;;12.50;11.30;;;;;;;8.01;100.00;96371.06;107196;1282;22584;-82
2022/09/27 05:32:51;;;;;;;10.50;9.50;;;;;;;8.13;100.00;96371.88;105511;1282;23296;-82
2022/09/27 05:35:41;;;;;;;26.50;24.10;;;;;;;8.27;100.00;96367.24;105607;1281;23936;-83
2022/09/27 05:38:12;;;;;;;25.60;23.50;;;;;;;8.39;100.00;96354.55;105314;1282;22560;-83
2022/09/27 05:40:44;;;;;;;12.00;11.00;;;;;;;8.49;100.00;96354.04;105403;1284;25250;-83
2022/09/27 05:43:13;;;;;;;11.80;10.20;;;;;;;8.60;100.00;96357.31;105635;1282;22891;-82
2022/09/27 05:45:42;;;;;;;11.50;9.80;;;;;;;8.71;100.00;96356.98;105580;1282;24289;-83
2022/09/27 05:48:13;;;;;;;10.00;9.00;;;;;;;8.84;100.00;96357.85;105667;1282;22574;-84
2022/09/27 05:50:58;;;;;;;10.40;9.00;;;;;;;9.01;100.00;96360.73;105487;1283;22554;-83
2022/09/27 05:53:26;;;;;;;10.40;9.40;;;;;;;9.15;100.00;96362.12;105478;1282;22712;-82
2022/09/27 05:55:55;;;;;;;11.80;9.50;;;;;;;9.29;100.00;96359.17;105462;1281;22630;-83
2022/09/27 05:58:29;;;;;;;11.50;10.30;;;;;;;9.42;100.00;96358.51;105600;1281;24232;-82
2022/09/27 06:01:14;;;;;;;16.10;12.10;;;;;;;9.59;100.00;96361.94;105489;1282;25350;-81
2022/09/27 06:03:54;;;;;;;19.00;13.80;;;;;;;9.75;100.00;96366.27;105477;1282;25393;-82
2022/09/27 06:06:27;;;;;;;15.70;13.30;;;;;;;9.91;100.00;96364.77;105479;1283;25363;-82
2022/09/27 06:08:56;;;;;;;16.70;13.90;;;;;;;10.05;100.00;96358.54;105493;1282;22623;-83
2022/09/27 06:11:26;;;;;;;15.70;14.20;;;;;;;10.15;100.00;96355.80;105669;1281;24231;-82
2022/09/27 06:13:54;;;;;;;16.00;14.40;;;;;;;10.24;100.00;96362.90;105500;1282;22566;-82
2022/09/27 06:16:23;;;;;;;14.30;12.80;;;;;;;10.31;100.00;96367.98;105522;1282;25346;-82
2022/09/27 06:18:52;;;;;;;15.30;13.50;;;;;;;10.34;100.00;96370.70;105531;1283;24379;-82
2022/09/27 06:21:21;;;;;;;17.20;13.10;;;;;;;10.39;100.00;96368.97;105502;1284;22577;-83
2022/09/27 06:23:56;;;;;;;14.80;13.30;;;;;;;10.46;100.00;96371.26;105555;1283;25483;-84
2022/09/27 06:26:29;;;;;;;;;;;;;;;10.50;100.00;96372.93;105534;1282;24296;-82
2022/09/27 06:29:17;;;;;;;15.20;13.00;;;;;;;10.56;100.00;96375.73;105310;1281;23955;-83
2022/09/27 06:31:57;;;;;;;32.50;14.80;;;;;;;10.64;100.00;96377.92;105587;1281;23956;-83
2022/09/27 06:34:46;;;;;;;31.30;14.70;;;;;;;10.73;100.00;96377.98;105489;1282;24418;-82
2022/09/27 06:37:14;;;;;;;34.90;14.40;;;;;;;10.81;100.00;96380.05;105496;1283;22547;-81
2022/09/27 06:39:42;;;;;;;33.10;15.60;;;;;;;10.85;100.00;96379.36;105569;1282;22554;-81
2022/09/27 06:42:32;;;;;;;316.60;45.20;;;;;;;10.96;100.00;96378.60;106798;1282;22582;-82
2022/09/27 06:45:10;;;;;;;148.00;28.10;;;;;;;11.01;100.00;96379.62;106354;1282;25588;-82
2022/09/27 06:47:59;;;;;;;23.90;13.70;;;;;;;11.05;100.00;96376.66;105530;1281;22713;-83
2022/09/27 06:50:47;;;;;;;19.30;14.10;;;;;;;11.11;100.00;96375.99;105502;1284;25424;-84
2022/09/27 06:53:16;;;;;;;15.00;11.10;;;;;;;11.16;100.00;96373.20;105453;1284;23207;-82
2022/09/27 06:55:44;;;;;;;24.40;10.20;;;;;;;11.23;100.00;96364.95;105468;1283;22565;-83
2022/09/27 07:01:27;;;;;;;17.00;9.80;;;;;;;11.45;100.00;96362.56;105292;1281;24228;-81
2022/09/27 07:04:24;;;;;;;14.10;9.50;;;;;;;11.50;100.00;96371.20;105458;1283;22571;-82
2022/09/27 07:07:12;;;;;;;51.40;13.40;;;;;;;11.56;100.00;96361.80;105154;1283;22700;-82
2022/09/27 07:09:44;;;;;;;13.90;9.30;;;;;;;11.63;100.00;96356.84;105264;1284;25480;-82
2022/09/27 07:12:13;;;;;;;9.50;7.90;;;;;;;11.71;100.00;96349.27;105482;1284;22697;-87
2022/09/27 07:14:42;;;;;;;8.50;7.70;;;;;;;11.82;100.00;96345.44;105827;1281;25387;-82
2022/09/27 07:17:15;;;;;;;9.40;7.90;;;;;;;11.86;100.00;96347.19;106070;1283;24252;-81
2022/09/27 07:19:46;;;;;;;48.70;11.10;;;;;;;11.87;100.00;96351.13;106013;1281;22544;-81
2022/09/27 07:22:14;;;;;;;40.70;9.50;;;;;;;11.90;100.00;96351.52;105923;1282;22565;-82
2022/09/27 07:24:45;;;;;;;26.70;10.10;;;;;;;11.93;100.00;96349.22;106098;1281;23966;-83
2022/09/27 07:27:17;;;;;;;12.70;8.30;;;;;;;11.97;100.00;96345.70;105827;1281;25361;-82
2022/09/27 07:29:45;;;;;;;8.00;7.10;;;;;;;12.03;100.00;96342.63;105908;1283;22539;-85
2022/09/27 07:32:13;;;;;;;10.20;9.20;;;;;;;12.09;100.00;96339.14;105966;1282;24350;-83
2022/09/27 07:34:42;;;;;;;9.10;7.10;;;;;;;12.16;100.00;96341.70;105820;1284;22626;-84
2022/09/27 07:37:11;;;;;;;8.30;7.20;;;;;;;12.19;100.00;96340.85;105905;1282;23373;-86
2022/09/27 07:39:40;;;;;;;7.60;6.80;;;;;;;12.24;100.00;96349.02;105881;1284;25507;-85
2022/09/27 07:42:08;;;;;;;9.90;7.50;;;;;;;12.30;100.00;96345.15;105733;1283;22722;-83
2022/09/27 07:44:42;;;;;;;8.70;7.90;;;;;;;12.37;100.00;96344.10;105813;1281;22706;-81
2022/09/27 07:47:40;;;;;;;9.40;8.20;;;;;;;12.44;100.00;96344.59;105178;1284;23460;-83
2022/09/27 07:50:37;;;;;;;17.20;10.30;;;;;;;12.53;99.99;96347.95;105487;1284;24316;-83
2022/09/27 07:53:22;;;;;;;23.60;12.50;;;;;;;12.59;100.00;96352.74;105865;1284;23419;-83
2022/09/27 07:55:57;;;;;;;33.70;15.70;;;;;;;12.67;99.91;96351.39;106428;1284;24198;-81
2022/09/27 07:58:31;;;;;;;14.30;10.70;;;;;;;12.76;99.73;96343.80;107466;1283;22653;-82
2022/09/27 08:01:01;;;;;;;12.00;10.30;;;;;;;12.85;99.29;96341.55;105874;1283;25725;-85
2022/09/27 08:03:30;;;;;;;14.90;13.40;;;;;;;12.93;99.38;96339.95;105895;1282;23390;-84
2022/09/27 08:06:02;;;;;;;25.50;23.10;;;;;;;13.03;99.63;96335.91;106012;1282;22758;-85
2022/09/27 08:08:30;;;;;;;16.70;14.90;;;;;;;13.15;99.24;96332.78;105944;1284;24253;-84
2022/09/27 08:11:00;;;;;;;9.30;8.20;;;;;;;13.30;98.99;96330.42;106085;1282;24296;-83
2022/09/27 08:13:28;;;;;;;10.60;7.80;;;;;;;13.41;97.87;96334.74;105855;1282;22879;-84
2022/09/27 08:16:00;;;;;;;12.40;8.00;;;;;;;13.50;97.42;96334.71;106008;1281;24104;-83
2022/09/27 08:18:34;;;;;;;7.70;7.00;;;;;;;13.59;97.66;96334.65;105873;1282;22554;-84
2022/09/27 08:21:22;;;;;;;7.50;6.70;;;;;;;13.64;96.25;96336.69;105993;1281;22727;-84
2022/09/27 08:24:10;;;;;;;8.30;7.50;;;;;;;13.69;96.78;96329.90;105849;1283;23069;-83
2022/09/27 08:26:56;;;;;;;8.40;7.60;;;;;;;13.81;96.92;96330.29;105977;1281;24295;-86
2022/09/27 08:29:40;;;;;;;11.30;9.80;;;;;;;13.98;97.33;96333.47;106130;1284;24253;-85
2022/09/27 08:32:10;;;;;;;11.40;9.30;;;;;;;14.15;96.42;96332.63;106141;1282;22579;-85
2022/09/27 08:34:38;;;;;;;10.70;8.80;;;;;;;14.30;95.98;96330.94;106077;1282;24301;-84
2022/09/27 08:37:06;;;;;;;15.40;8.80;;;;;;;14.42;95.66;96329.52;106085;1281;22699;-87
2022/09/27 08:39:34;;;;;;;15.20;10.10;;;;;;;14.54;95.20;96330.45;106072;1281;25402;-84
2022/09/27 08:42:40;;;;;;;11.90;7.50;;;;;;;14.65;95.19;96325.81;105960;1281;22638;-84
2022/09/27 08:45:25;;;;;;;24.30;14.10;;;;;;;14.74;94.85;96321.85;105887;1282;22541;-86
2022/09/27 08:48:03;;;;;;;14.90;10.10;;;;;;;14.88;94.71;96319.11;105837;1284;22666;-84
2022/09/27 08:50:35;;;;;;;9.60;8.70;;;;;;;14.98;94.59;96312.75;105992;1282;22619;-86
2022/09/27 08:53:20;;;;;;;22.60;9.20;;;;;;;15.12;94.29;96313.95;105989;1282;22541;-83
2022/09/27 08:55:54;;;;;;;12.20;8.50;;;;;;;15.24;93.74;96309.70;105872;1283;22593;-85
2022/09/27 08:58:29;;;;;;;13.00;7.40;;;;;;;15.37;93.15;96310.27;106388;1282;25361;-85
2022/09/27 09:01:03;;;;;;;19.10;11.10;;;;;;;15.52;93.50;96309.03;105917;1282;25315;-85
2022/09/27 09:03:42;;;;;;;14.80;10.50;;;;;;;15.69;93.15;96305.00;105908;1282;25317;-85
2022/09/27 09:07:05;;;;;;;13.10;7.10;;;;;;;15.82;92.25;96304.68;106070;1283;22591;-84
2022/09/27 09:09:33;;;;;;;9.90;6.80;;;;;;;15.96;91.92;96302.81;107365;1287;22716;-84
2022/09/27 09:12:48;;;;;;;145.40;20.50;;;;;;;16.07;90.39;96304.08;106093;1287;23341;-84
2022/09/27 09:15:53;;;;;;;34.20;12.20;;;;;;;16.22;91.11;96292.66;105602;1287;23411;-83
2022/09/27 09:19:00;;;;;;;148.90;23.10;;;;;;;16.37;90.74;96287.98;105611;1287;22636;-82
2022/09/27 09:22:09;;;;;;;58.80;12.30;;;;;;;16.47;89.35;96285.89;104810;1287;25244;-82
2022/09/27 09:24:57;;;;;;;435.30;64.40;;;;;;;16.53;87.55;96281.43;105585;1287;24343;-85
2022/09/27 09:27:37;;;;;;;10.00;7.20;;;;;;;16.62;87.36;96281.27;105251;1288;25255;-83
2022/09/27 09:30:11;;;;;;;204.80;24.10;;;;;;;16.65;86.12;96276.23;105279;1287;22713;-84
2022/09/27 09:33:13;;;;;;;14.50;7.70;;;;;;;16.75;87.13;96270.34;105376;1287;25289;-82
2022/09/27 09:35:47;;;;;;;13.60;7.20;;;;;;;16.93;87.72;96263.02;105358;1287;22578;-84
2022/09/27 09:38:26;;;;;;;13.20;6.90;;;;;;;17.04;85.81;96258.17;105356;1287;23990;-85
2022/09/27 09:41:19;;;;;;;9.40;7.40;;;;;;;17.14;86.18;96250.98;105279;1287;25428;-84
2022/09/27 09:43:53;;;;;;;11.20;8.40;;;;;;;17.24;85.84;96240.70;105768;1281;25344;-84
2022/09/27 09:46:33;;;;;;;13.50;9.60;;;;;;;17.33;84.64;96239.79;105972;1282;22586;-85
2022/09/27 09:49:20;;;;;;;12.60;7.30;;;;;;;17.40;84.64;96237.55;105757;1281;25359;-84
2022/09/27 09:52:04;;;;;;;15.70;8.60;;;;;;;17.51;83.62;96233.09;105889;1281;25358;-86
2022/09/27 09:54:50;;;;;;;18.20;11.20;;;;;;;17.52;82.91;96229.73;105755;1282;149098;-84
2022/09/27 09:57:27;;;;;;;9.50;8.60;;;;;;;17.58;83.80;96227.88;105998;1282;22542;-82
2022/09/27 09:59:58;;;;;;;5.70;4.90;;;;;;;17.61;83.46;96224.17;105825;1282;25331;-83
2022/09/27 10:02:34;;;;;;;7.20;5.40;;;;;;;17.63;82.85;96222.77;105831;1282;25647;-83
2022/09/27 10:05:14;;;;;;;8.30;6.90;;;;;;;17.65;82.40;96218.19;105878;1283;25392;-83
2022/09/27 10:07:44;;;;;;;10.60;5.60;;;;;;;17.68;82.36;96214.54;106046;1282;23985;-82
2022/09/27 10:10:15;;;;;;;22.60;8.30;;;;;;;17.72;79.93;96213.70;105882;1282;24258;-83
2022/09/27 10:12:56;;;;;;;63.30;13.20;;;;;;;17.74;80.38;96218.13;105889;1282;22782;-82
2022/09/27 10:15:29;;;;;;;;;;;;;;;17.79;79.15;96217.92;105923;1282;25265;-84
2022/09/27 10:17:58;;;;;;;15.00;6.60;;;;;;;17.81;79.45;96215.84;105975;1282;22562;-83
2022/09/27 10:20:33;;;;;;;13.80;6.60;;;;;;;17.72;76.47;96213.30;106274;1282;22537;-82
2022/09/27 10:23:14;;;;;;;48.20;22.30;;;;;;;17.63;77.55;96210.95;108045;1282;22566;-85
2022/09/27 10:25:59;;;;;;;17.40;8.90;;;;;;;17.64;77.90;96209.23;106070;1281;23518;-86
2022/09/27 10:28:46;;;;;;;9.10;4.70;;;;;;;17.58;77.04;96208.45;105874;1282;22651;-84
2022/09/27 10:31:19;;;;;;;7.80;4.90;;;;;;;17.54;76.30;96208.42;106038;1282;22593;-84
2022/09/27 10:34:04;;;;;;;;;;;;;;;17.61;76.70;96201.60;105793;1282;26479;-83
2022/09/27 10:36:38;;;;;;;8.90;5.10;;;;;;;17.67;76.60;96201.70;105846;1282;25462;-84
2022/09/27 10:39:21;;;;;;;6.20;4.30;;;;;;;17.72;76.47;96198.59;106073;1282;22668;-86
2022/09/27 10:41:49;;;;;;;8.20;4.90;;;;;;;17.82;76.39;96196.55;106198;1282;22563;-82
2022/09/27 10:44:31;;;;;;;11.00;5.80;;;;;;;17.91;75.62;96197.02;105877;1282;24375;-86
2022/09/27 10:47:28;;;;;;;139.50;19.20;;;;;;;18.02;76.07;96194.84;106106;1282;25400;-84
2022/09/27 10:50:38;;;;;;;20.30;7.30;;;;;;;18.09;75.26;96190.09;105731;1282;22546;-85
2022/09/27 10:53:25;;;;;;;63.10;13.60;;;;;;;18.11;74.52;96188.77;106116;1281;22611;-84
2022/09/27 10:56:00;;;;;;;74.40;12.20;;;;;;;18.14;73.98;96189.55;106063;1281;25343;-83
2022/09/27 10:58:35;;;;;;;233.70;28.50;;;;;;;18.16;73.37;96191.42;105780;1282;22726;-85
2022/09/27 11:01:11;;;;;;;38.50;8.30;;;;;;;18.23;74.47;96188.45;105839;1281;23296;-84
2022/09/27 11:04:05;;;;;;;5.60;4.50;;;;;;;18.21;73.20;96190.40;105847;1282;25320;-84
2022/09/27 11:06:36;;;;;;;5.90;4.00;;;;;;;18.21;72.95;96190.64;105906;1282;22584;-84
2022/09/27 11:09:17;;;;;;;5.50;4.40;;;;;;;18.20;72.13;96185.33;105830;1282;25242;-85
2022/09/27 11:11:47;;;;;;;8.30;4.80;;;;;;;18.19;71.21;96185.42;106002;1282;24241;-84
2022/09/27 11:14:23;;;;;;;6.30;4.60;;;;;;;18.17;71.00;96189.45;106091;1281;22725;-84
2022/09/27 11:17:09;;;;;;;57.80;13.30;;;;;;;18.18;71.46;96185.02;105408;1282;22584;-84
2022/09/27 11:19:42;;;;;;;45.70;11.60;;;;;;;18.27;72.07;96182.60;105789;1283;22576;-85
2022/09/27 11:22:28;;;;;;;61.40;11.10;;;;;;;18.31;71.86;96181.74;105905;1282;24214;-85
2022/09/27 11:25:12;;;;;;;32.80;12.00;;;;;;;18.24;70.99;96173.42;106201;1282;22645;-84
2022/09/27 11:28:13;;;;;;;10.20;6.60;;;;;;;18.14;70.82;96173.73;106012;1282;22555;-84
2022/09/27 11:31:02;;;;;;;7.70;5.50;;;;;;;18.02;71.01;96168.05;105654;1282;22551;-83
2022/09/27 11:33:56;;;;;;;18.00;6.30;;;;;;;17.90;70.97;96164.31;107096;1282;25121;-85
2022/09/27 11:36:40;;;;;;;13.20;7.40;;;;;;;17.82;70.69;96162.13;106958;1282;24123;-85
2022/09/27 11:39:59;;;;;;;13.60;7.10;;;;;;;17.73;70.32;96157.50;105910;1282;24338;-85
2022/09/27 11:42:51;;;;;;;38.60;9.50;;;;;;;17.66;70.07;96153.90;104940;1293;22633;-84
2022/09/27 11:45:40;;;;;;;8.90;5.50;;;;;;;17.61;69.73;96150.78;105037;1290;22738;-85
2022/09/27 11:48:56;;;;;;;11.00;6.80;;;;;;;17.54;69.89;96146.98;104952;1290;22591;-84
2022/09/27 11:51:49;;;;;;;10.40;8.30;;;;;;;17.52;70.11;96145.95;105069;1290;23941;-86
2022/09/27 11:54:48;;;;;;;8.80;7.20;;;;;;;17.53;69.67;96144.64;104879;1291;22742;-85
2022/09/27 11:57:35;;;;;;;10.60;8.20;;;;;;;17.45;69.84;96146.23;104828;1294;25356;-85
2022/09/27 12:00:25;;;;;;;10.90;7.90;;;;;;;17.41;70.02;96140.25;104841;1290;23223;-84
2022/09/27 12:03:09;;;;;;;9.60;7.60;;;;;;;17.35;69.96;96141.48;104947;1291;23386;-85
2022/09/27 12:05:46;;;;;;;10.80;9.30;;;;;;;17.31;69.31;96144.81;104903;1290;22556;-85
2022/09/27 12:09:01;;;;;;;14.60;9.00;;;;;;;17.22;69.48;96141.30;104920;1293;23458;-84